createdAt,value
2022-08-22T00:00:20.760Z,97110.86
2022-08-22T00:02:54.874Z,97135.17
2022-08-22T00:06:13.568Z,97115.57
2022-08-22T00:08:57.988Z,97107.48
2022-08-22T00:11:41.013Z,97111.23
2022-08-22T00:14:22.201Z,97104.38
2022-08-22T00:17:04.671Z,97103.59
2022-08-22T00:19:53.514Z,97105.67
2022-08-22T00:23:10.146Z,97109.88
2022-08-22T00:26:18.777Z,97108.85
2022-08-22T00:29:25.855Z,97108.02
2022-08-22T00:32:14.308Z,97111.39
2022-08-22T00:34:58.072Z,97108.23
2022-08-22T00:37:42.470Z,97107.69
2022-08-22T00:40:32.913Z,97107.70
2022-08-22T00:43:33.802Z,97105.55
2022-08-22T00:46:32.001Z,97103.53
2022-08-22T00:49:24.362Z,97108.59
2022-08-22T00:52:43.736Z,97107.52
2022-08-22T00:55:35.314Z,97111.80
2022-08-22T00:58:28.345Z,97110.26
2022-08-22T01:01:09.356Z,97113.17
2022-08-22T01:04:17.411Z,97111.59
2022-08-22T01:07:04.590Z,97114.48
2022-08-22T01:09:51.327Z,97114.89
2022-08-22T01:12:46.904Z,97115.44
2022-08-22T01:15:27.424Z,97116.23
2022-08-22T01:18:25.193Z,97116.91
2022-08-22T01:21:50.179Z,97119.66
2022-08-22T01:25:12.348Z,97120.11
2022-08-22T01:28:22.883Z,97122.16
2022-08-22T01:31:30.864Z,97121.92
2022-08-22T01:34:35.194Z,97122.12
2022-08-22T01:37:43.652Z,97121.09
2022-08-22T01:40:54.063Z,97118.23
2022-08-22T01:43:59.054Z,97119.35
2022-08-22T01:46:38.803Z,97124.52
2022-08-22T01:49:22.765Z,97121.91
2022-08-22T01:52:04.490Z,97123.16
2022-08-22T01:54:51.106Z,97121.06
2022-08-22T01:57:34.629Z,97121.08
2022-08-22T02:00:34.649Z,97121.55
2022-08-22T02:03:25.227Z,97121.81
2022-08-22T02:06:07.972Z,97120.67
2022-08-22T02:08:53.736Z,97122.94
2022-08-22T02:11:42.495Z,97122.04
2022-08-22T02:14:28.931Z,97122.67
2022-08-22T02:17:16.562Z,97120.64
2022-08-22T02:20:00.793Z,97116.48
2022-08-22T02:22:45.745Z,97116.09
2022-08-22T02:25:24.407Z,97118.12
2022-08-22T02:28:05.298Z,97111.09
2022-08-22T02:30:55.830Z,97114.27
2022-08-22T02:33:39.150Z,97111.58
2022-08-22T02:36:21.382Z,97117.54
2022-08-22T02:39:04.138Z,97119.33
2022-08-22T02:41:50.335Z,97117.42
2022-08-22T02:44:31.006Z,97116.11
2022-08-22T02:47:11.977Z,97120.63
2022-08-22T02:49:56.530Z,97113.23
2022-08-22T02:52:37.220Z,97114.55
2022-08-22T02:55:17.448Z,97111.63
2022-08-22T02:57:58.655Z,97113.45
2022-08-22T03:00:42.813Z,97109.94
2022-08-22T03:03:25.649Z,97109.83
2022-08-22T03:06:03.679Z,97107.36
2022-08-22T03:08:47.578Z,97105.06
2022-08-22T03:11:30.558Z,97108.28
2022-08-22T03:14:10.457Z,97105.14
2022-08-22T03:16:54.469Z,97110.56
2022-08-22T03:19:33.328Z,97110.84
2022-08-22T03:22:21.440Z,97112.65
2022-08-22T03:25:03.471Z,97110.38
2022-08-22T03:27:59.250Z,97114.23
2022-08-22T03:30:40.001Z,97120.79
2022-08-22T03:33:23.173Z,97122.42
2022-08-22T03:36:22.326Z,97127.40
2022-08-22T03:39:14.144Z,97129.09
2022-08-22T03:42:11.950Z,97130.13
2022-08-22T03:45:14.359Z,97133.34
2022-08-22T03:48:07.323Z,97134.10
2022-08-22T03:51:02.460Z,97135.98
2022-08-22T03:54:07.683Z,97135.73
2022-08-22T03:57:23.768Z,97137.34
2022-08-22T04:00:11.618Z,97141.13
2022-08-22T04:03:20.347Z,97140.65
2022-08-22T04:06:29.708Z,97142.17
2022-08-22T04:12:34.239Z,97149.23
2022-08-22T04:15:39.871Z,97149.03
2022-08-22T04:18:25.960Z,97150.36
2022-08-22T04:21:33.489Z,97157.73
2022-08-22T04:24:32.798Z,97157.45
2022-08-22T04:27:14.418Z,97161.98
2022-08-22T04:29:52.922Z,97164.71
2022-08-22T04:32:36.901Z,97163.55
2022-08-22T04:35:20.608Z,97168.28
2022-08-22T04:37:57.141Z,97170.72
2022-08-22T04:40:38.755Z,97172.41
2022-08-22T04:43:18.277Z,97178.09
2022-08-22T04:45:56.748Z,97179.14
2022-08-22T04:48:37.989Z,97177.19
2022-08-22T04:51:18.469Z,97180.19
2022-08-22T04:54:17.149Z,97185.80
2022-08-22T04:57:05.940Z,97185.09
2022-08-22T04:59:39.408Z,97185.42
2022-08-22T05:02:14.669Z,97185.57
2022-08-22T05:04:54.506Z,97185.86
2022-08-22T05:07:35.874Z,97185.61
2022-08-22T05:10:15.128Z,97188.00
2022-08-22T05:12:53.250Z,97187.85
2022-08-22T05:15:31.250Z,97188.11
2022-08-22T05:18:07.618Z,97185.35
2022-08-22T05:20:44.779Z,97186.02
2022-08-22T05:23:21.437Z,97187.86
2022-08-22T05:25:58.000Z,97195.52
2022-08-22T05:28:36.536Z,97195.77
2022-08-22T05:31:13.768Z,97195.14
2022-08-22T05:33:49.590Z,97196.83
2022-08-22T05:36:27.807Z,97200.88
2022-08-22T05:39:04.206Z,97201.48
2022-08-22T05:41:40.430Z,97201.27
2022-08-22T05:44:22.231Z,97202.11
2022-08-22T05:47:04.158Z,97205.16
2022-08-22T05:49:43.811Z,97209.77
2022-08-22T05:52:26.449Z,97211.55
2022-08-22T05:55:14.512Z,97212.20
2022-08-22T05:57:54.758Z,97219.98
2022-08-22T06:00:32.904Z,97224.10
2022-08-22T06:03:18.238Z,97222.41
2022-08-22T06:05:53.948Z,97223.48
2022-08-22T06:08:32.713Z,97223.81
2022-08-22T06:11:10.088Z,97229.66
2022-08-22T06:13:47.337Z,97230.04
2022-08-22T06:16:24.567Z,97229.05
2022-08-22T06:18:59.752Z,97230.94
2022-08-22T06:21:39.287Z,97230.23
2022-08-22T06:24:19.371Z,97230.16
2022-08-22T06:26:54.900Z,97233.84
2022-08-22T06:29:35.795Z,97235.30
2022-08-22T06:32:16.169Z,97240.57
2022-08-22T06:34:50.838Z,97249.27
2022-08-22T06:37:32.588Z,97252.25
2022-08-22T06:40:08.106Z,97252.45
2022-08-22T06:42:46.120Z,97253.99
2022-08-22T06:45:23.221Z,97256.42
2022-08-22T06:48:13.808Z,97252.70
2022-08-22T06:50:52.972Z,97248.30
2022-08-22T06:53:29.369Z,97251.32
2022-08-22T06:56:06.067Z,97255.96
2022-08-22T06:58:44.250Z,97255.81
2022-08-22T07:01:20.049Z,97262.84
2022-08-22T07:03:55.422Z,97261.05
2022-08-22T07:06:36.128Z,97264.38
2022-08-22T07:09:18.429Z,97261.63
2022-08-22T07:11:54.811Z,97265.31
2022-08-22T07:14:34.707Z,97262.90
2022-08-22T07:17:12.757Z,97260.58
2022-08-22T07:19:56.488Z,97265.11
2022-08-22T07:22:32.460Z,97264.45
2022-08-22T07:25:11.282Z,97263.81
2022-08-22T07:28:16.456Z,97267.55
2022-08-22T07:30:59.189Z,97263.39
2022-08-22T07:33:46.044Z,97258.20
2022-08-22T07:36:31.647Z,97255.85
2022-08-22T07:39:26.120Z,97258.46
2022-08-22T07:42:11.779Z,97256.45
2022-08-22T07:45:04.940Z,97256.38
2022-08-22T07:47:52.910Z,97254.71
2022-08-22T07:50:32.468Z,97252.77
2022-08-22T07:53:13.753Z,97245.13
2022-08-22T07:55:50.030Z,97247.58
2022-08-22T07:58:26.718Z,97244.64
2022-08-22T08:01:00.382Z,97245.90
2022-08-22T08:03:33.420Z,97244.20
2022-08-22T08:06:05.860Z,97246.77
2022-08-22T08:08:43.340Z,97251.09
2022-08-22T08:11:19.449Z,97263.73
2022-08-22T08:13:56.157Z,97265.27
2022-08-22T08:16:33.171Z,97264.64
2022-08-22T08:19:08.089Z,97262.25
2022-08-22T08:21:43.920Z,97263.29
2022-08-22T08:24:21.424Z,97260.60
2022-08-22T08:27:15.333Z,97261.55
2022-08-22T08:29:55.654Z,97268.39
2022-08-22T08:32:32.364Z,97270.04
2022-08-22T08:35:08.961Z,97276.07
2022-08-22T08:37:47.471Z,97282.46
2022-08-22T08:40:36.763Z,97288.01
2022-08-22T08:43:28.540Z,97284.32
2022-08-22T08:46:39.069Z,97280.15
2022-08-22T08:49:31.260Z,97274.48
2022-08-22T08:52:33.020Z,97278.70
2022-08-22T08:55:22.772Z,97274.33
2022-08-22T08:58:06.963Z,97270.91
2022-08-22T09:00:57.721Z,97273.07
2022-08-22T09:04:01.187Z,97273.34
2022-08-22T09:10:11.580Z,97269.89
2022-08-22T09:13:18.649Z,97268.00
2022-08-22T09:16:05.515Z,97261.62
2022-08-22T09:19:06.937Z,97264.39
2022-08-22T09:22:17.989Z,97266.28
2022-08-22T09:25:28.682Z,97267.05
2022-08-22T09:28:20.231Z,97270.69
2022-08-22T09:34:31.386Z,97261.23
2022-08-22T09:37:18.258Z,97263.52
2022-08-22T09:40:08.173Z,97263.06
2022-08-22T09:42:53.255Z,97261.34
2022-08-22T09:45:45.659Z,97260.42
2022-08-22T09:48:43.939Z,97260.13
2022-08-22T09:51:34.691Z,97263.05
2022-08-22T09:54:32.889Z,97258.23
2022-08-22T09:57:19.487Z,97260.27
2022-08-22T10:00:22.420Z,97262.73
2022-08-22T10:03:07.759Z,97269.58
2022-08-22T10:05:49.423Z,97267.56
2022-08-22T10:08:38.502Z,97265.98
2022-08-22T10:11:30.449Z,97265.66
2022-08-22T10:14:09.899Z,97265.14
2022-08-22T10:17:07.541Z,97266.90
2022-08-22T10:19:44.379Z,97272.43
2022-08-22T10:22:44.866Z,97277.94
2022-08-22T10:25:36.251Z,97279.20
2022-08-22T10:28:28.669Z,97282.31
2022-08-22T10:31:21.411Z,97282.03
2022-08-22T10:34:04.759Z,97281.76
2022-08-22T10:36:46.789Z,97282.54
2022-08-22T10:39:24.769Z,97281.28
2022-08-22T10:42:19.511Z,97282.89
2022-08-22T10:45:12.867Z,97285.14
2022-08-22T10:48:03.366Z,97282.73
2022-08-22T10:50:45.242Z,97280.94
2022-08-22T10:53:34.821Z,97275.54
2022-08-22T10:56:16.517Z,97272.17
2022-08-22T10:59:01.561Z,97270.31
2022-08-22T11:01:49.100Z,97265.92
2022-08-22T11:04:43.970Z,97265.75
2022-08-22T11:07:44.567Z,97266.02
2022-08-22T11:10:32.667Z,97266.85
2022-08-22T11:13:28.790Z,97268.70
2022-08-22T11:16:14.400Z,97271.98
2022-08-22T11:19:24.420Z,97272.49
2022-08-22T11:22:07.356Z,97268.16
2022-08-22T11:25:23.780Z,97270.18
2022-08-22T11:28:31.201Z,97269.39
2022-08-22T11:31:16.680Z,97267.43
2022-08-22T11:33:58.656Z,97264.06
2022-08-22T11:36:46.455Z,97264.02
2022-08-22T11:39:35.700Z,97264.13
2022-08-22T11:42:16.531Z,97263.64
2022-08-22T11:44:58.513Z,97262.51
2022-08-22T11:47:35.850Z,97260.66
2022-08-22T11:50:19.510Z,97260.88
2022-08-22T11:53:09.862Z,97260.44
2022-08-22T11:55:51.708Z,97263.88
2022-08-22T11:58:51.648Z,97259.47
2022-08-22T12:01:38.018Z,97259.59
2022-08-22T12:04:20.786Z,97252.34
2022-08-22T12:07:12.469Z,97253.33
2022-08-22T12:09:55.428Z,97253.49
2022-08-22T12:12:40.225Z,97255.63
2022-08-22T12:15:23.278Z,97266.23
2022-08-22T12:18:28.510Z,97262.90
2022-08-22T12:21:19.329Z,97258.86
2022-08-22T12:24:33.889Z,97255.48
2022-08-22T12:27:31.738Z,97257.20
2022-08-22T12:30:16.385Z,97248.58
2022-08-22T12:44:29.113Z,97233.93
2022-08-22T12:47:27.661Z,97228.12
2022-08-22T12:50:25.518Z,97222.55
2022-08-22T12:53:35.608Z,97219.52
2022-08-22T12:56:29.128Z,97217.64
2022-08-22T12:59:23.970Z,97216.29
2022-08-22T13:02:01.940Z,97215.37
2022-08-22T13:04:38.208Z,97219.25
2022-08-22T13:07:29.045Z,97222.33
2022-08-22T13:10:28.990Z,97231.86
2022-08-22T13:13:03.903Z,97232.58
2022-08-22T13:15:53.528Z,97235.55
2022-08-22T13:18:35.832Z,97233.06
2022-08-22T13:24:56.926Z,97236.04
2022-08-22T13:27:51.606Z,97229.56
2022-08-22T13:33:16.099Z,97223.98
2022-08-22T13:39:58.661Z,97225.00
2022-08-22T13:42:54.142Z,97225.05
2022-08-22T13:45:57.247Z,97224.64
2022-08-22T13:48:56.656Z,97226.17
2022-08-22T13:51:53.120Z,97227.71
2022-08-22T13:54:57.485Z,97229.73
2022-08-22T13:57:51.809Z,97229.53
2022-08-22T14:00:48.648Z,97234.96
2022-08-22T14:03:52.023Z,97231.39
2022-08-22T14:06:43.913Z,97231.86
2022-08-22T14:15:12.899Z,97225.41
2022-08-22T14:17:50.089Z,97226.36
2022-08-22T14:20:33.619Z,97223.55
2022-08-22T14:23:20.070Z,97225.11
2022-08-22T14:26:32.680Z,97221.77
2022-08-22T14:29:24.872Z,97222.95
2022-08-22T14:32:08.825Z,97222.54
2022-08-22T14:34:45.594Z,97226.66
2022-08-22T14:37:25.968Z,97220.70
2022-08-22T14:40:05.462Z,97219.39
2022-08-22T14:42:45.387Z,97218.46
2022-08-22T14:45:22.061Z,97215.23
2022-08-22T14:48:29.408Z,97218.20
2022-08-22T14:50:57.430Z,97216.02
2022-08-22T14:53:32.021Z,97211.83
2022-08-22T14:56:10.993Z,97207.70
2022-08-22T14:58:58.421Z,97210.50
2022-08-22T15:01:33.293Z,97205.82
2022-08-22T15:04:18.851Z,97208.18
2022-08-22T15:06:58.522Z,97212.01
2022-08-22T15:09:35.402Z,97215.73
2022-08-22T15:12:22.488Z,97222.23
2022-08-22T15:14:58.540Z,97230.73
2022-08-22T15:17:44.947Z,97238.12
2022-08-22T15:20:28.665Z,97239.83
2022-08-22T15:23:09.856Z,97235.00
2022-08-22T15:25:47.003Z,97231.85
2022-08-22T15:28:22.600Z,97234.31
2022-08-22T15:31:06.028Z,97237.09
2022-08-22T15:33:45.436Z,97242.29
2022-08-22T15:36:21.729Z,97245.59
2022-08-22T15:38:56.616Z,97248.59
2022-08-22T15:41:45.728Z,97259.14
2022-08-22T15:44:33.227Z,97257.95
2022-08-22T15:47:27.086Z,97253.53
2022-08-22T15:50:05.318Z,97259.27
2022-08-22T15:53:10.649Z,97252.42
2022-08-22T15:56:24.128Z,97250.36
2022-08-22T15:59:26.738Z,97251.44
2022-08-22T16:02:05.298Z,97249.98
2022-08-22T16:04:47.620Z,97245.66
2022-08-22T16:07:35.202Z,97240.45
2022-08-22T16:10:12.587Z,97235.73
2022-08-22T16:12:48.010Z,97233.02
2022-08-22T16:16:01.763Z,97234.13
2022-08-22T16:19:16.609Z,97231.77
2022-08-22T16:22:16.455Z,97228.11
2022-08-22T16:25:04.270Z,97230.91
2022-08-22T16:27:37.697Z,97230.59
2022-08-22T16:30:31.657Z,97235.83
2022-08-22T16:33:05.050Z,97239.33
2022-08-22T16:36:22.671Z,97241.42
2022-08-22T16:38:58.736Z,97240.05
2022-08-22T16:41:41.159Z,97240.90
2022-08-22T16:44:47.527Z,97241.35
2022-08-22T16:47:22.737Z,97241.05
2022-08-22T16:50:05.867Z,97240.67
2022-08-22T16:53:04.677Z,97237.20
2022-08-22T16:55:52.299Z,97237.67
2022-08-22T16:59:00.849Z,97239.35
2022-08-22T17:01:39.613Z,97231.10
2022-08-22T17:04:21.350Z,97225.45
2022-08-22T17:07:06.517Z,97227.89
2022-08-22T17:09:54.846Z,97232.78
2022-08-22T17:12:42.858Z,97234.39
2022-08-22T17:15:25.873Z,97238.63
2022-08-22T17:18:16.195Z,97236.17
2022-08-22T17:21:00.989Z,97240.09
2022-08-22T17:23:45.455Z,97242.41
2022-08-22T17:26:30.478Z,97245.75
2022-08-22T17:29:14.820Z,97246.09
2022-08-22T17:31:56.077Z,97244.95
2022-08-22T17:34:41.198Z,97245.13
2022-08-22T17:37:23.743Z,97240.36
2022-08-22T17:40:25.462Z,97243.86
2022-08-22T17:43:10.244Z,97247.02
2022-08-22T17:46:01.967Z,97249.64
2022-08-22T17:48:42.741Z,97249.27
2022-08-22T17:51:28.635Z,97257.40
2022-08-22T17:54:07.357Z,97262.20
2022-08-22T17:57:05.188Z,97268.56
2022-08-22T17:59:50.154Z,97274.41
2022-08-22T18:02:29.288Z,97281.30
2022-08-22T18:05:08.937Z,97285.34
2022-08-22T18:07:57.910Z,97282.77
2022-08-22T18:10:48.419Z,97277.49
2022-08-22T18:13:39.001Z,97275.05
2022-08-22T18:16:24.048Z,97276.13
2022-08-22T18:19:12.619Z,97280.50
2022-08-22T18:21:56.818Z,97291.30
2022-08-22T18:24:45.620Z,97298.81
2022-08-22T18:27:35.224Z,97299.39
2022-08-22T18:30:21.600Z,97298.74
2022-08-22T18:33:03.967Z,97291.21
2022-08-22T18:35:49.970Z,97283.52
2022-08-22T18:38:34.710Z,97282.63
2022-08-22T18:41:17.571Z,97280.28
2022-08-22T18:43:52.811Z,97281.95
2022-08-22T18:46:43.588Z,97280.30
2022-08-22T18:49:42.165Z,97281.39
2022-08-22T18:52:22.378Z,97282.97
2022-08-22T18:55:15.817Z,97280.76
2022-08-22T18:58:16.728Z,97284.03
2022-08-22T19:01:11.665Z,97291.40
2022-08-22T19:03:56.610Z,97288.47
2022-08-22T19:07:02.121Z,97296.29
2022-08-22T19:09:58.814Z,97295.23
2022-08-22T19:12:46.190Z,97296.34
2022-08-22T19:15:29.578Z,97301.02
2022-08-22T19:18:26.692Z,97303.98
2022-08-22T19:21:41.223Z,97302.40
2022-08-22T19:24:33.370Z,97301.25
2022-08-22T19:27:36.040Z,97294.92
2022-08-22T19:30:32.370Z,97290.57
2022-08-22T19:33:27.757Z,97292.48
2022-08-22T19:36:14.679Z,97282.84
2022-08-22T19:39:04.210Z,97281.48
2022-08-22T19:41:47.701Z,97279.46
2022-08-22T19:44:40.553Z,97287.10
2022-08-22T19:47:35.234Z,97294.05
2022-08-22T19:50:25.448Z,97288.54
2022-08-22T19:53:28.261Z,97282.39
2022-08-22T19:56:14.419Z,97279.84
2022-08-22T19:59:02.268Z,97280.39
2022-08-22T20:01:54.138Z,97281.33
2022-08-22T20:04:50.978Z,97288.39
2022-08-22T20:07:39.952Z,97291.61
2022-08-22T20:10:24.862Z,97284.30
2022-08-22T20:13:12.371Z,97282.18
2022-08-22T20:16:13.648Z,97279.42
2022-08-22T20:19:21.629Z,97276.11
2022-08-22T20:21:58.690Z,97279.67
2022-08-22T20:24:40.073Z,97275.98
2022-08-22T20:27:19.909Z,97279.53
2022-08-22T20:30:02.571Z,97271.84
2022-08-22T20:32:39.642Z,97274.20
2022-08-22T20:35:17.528Z,97273.55
2022-08-22T20:38:06.789Z,97273.77
2022-08-22T20:40:54.746Z,97269.58
2022-08-22T20:43:40.363Z,97271.67
2022-08-22T20:46:27.733Z,97274.33
2022-08-22T20:49:03.741Z,97269.80
2022-08-22T20:51:36.993Z,97264.55
2022-08-22T20:54:20.489Z,97264.94
2022-08-22T20:56:56.830Z,97266.56
2022-08-22T20:59:36.142Z,97267.66
2022-08-22T21:02:17.641Z,97271.61
2022-08-22T21:04:57.884Z,97269.29
2022-08-22T21:07:37.320Z,97266.25
2022-08-22T21:10:34.656Z,97273.23
2022-08-22T21:13:10.985Z,97293.08
2022-08-22T21:15:46.592Z,97301.13
2022-08-22T21:18:31.998Z,97312.75
2022-08-22T21:21:17.581Z,97323.45
2022-08-22T21:24:08.049Z,97356.08
2022-08-22T21:27:48.695Z,97331.95
2022-08-22T21:34:55.531Z,97297.79
2022-08-22T21:38:13.671Z,97314.50
2022-08-22T21:40:46.186Z,97314.02
2022-08-22T21:43:33.209Z,97314.42
2022-08-22T21:46:06.458Z,97322.31
2022-08-22T21:48:44.059Z,97316.40
2022-08-22T21:51:29.849Z,97309.67
2022-08-22T21:54:39.897Z,97304.02
2022-08-22T21:57:35.089Z,97300.95
2022-08-22T22:00:32.784Z,97294.86
2022-08-22T22:03:09.908Z,97289.86
2022-08-22T22:05:42.850Z,97298.54
2022-08-22T22:08:15.675Z,97306.16
2022-08-22T22:10:49.627Z,97320.04
2022-08-22T22:13:23.894Z,97327.55
2022-08-22T22:16:01.629Z,97317.38
2022-08-22T22:18:35.759Z,97320.85
2022-08-22T22:21:09.118Z,97319.67
2022-08-22T22:23:39.738Z,97310.09
2022-08-22T22:26:13.409Z,97314.61
2022-08-22T22:28:48.938Z,97309.96
2022-08-22T22:31:21.079Z,97298.98
2022-08-22T22:33:53.551Z,97299.14
2022-08-22T22:36:28.333Z,97289.17
2022-08-22T22:39:02.479Z,97274.50
2022-08-22T22:41:35.000Z,97274.13
2022-08-22T22:44:07.959Z,97274.13
2022-08-22T22:46:40.248Z,97263.73
2022-08-22T22:49:12.709Z,97263.34
2022-08-22T22:51:45.129Z,97261.73
2022-08-22T22:54:17.509Z,97261.61
2022-08-22T22:56:50.018Z,97246.84
2022-08-22T22:59:25.967Z,97243.11
2022-08-22T23:02:08.019Z,97257.17
2022-08-22T23:04:43.430Z,97256.91
2022-08-22T23:07:19.387Z,97264.73
2022-08-22T23:09:51.798Z,97265.89
2022-08-22T23:12:29.439Z,97267.66
2022-08-22T23:15:02.070Z,97270.83
2022-08-22T23:17:34.398Z,97270.07
2022-08-22T23:20:07.907Z,97265.87
2022-08-22T23:22:43.078Z,97259.00
2022-08-22T23:25:15.522Z,97261.99
2022-08-22T23:27:48.702Z,97259.90
2022-08-22T23:30:25.411Z,97255.00
2022-08-22T23:32:58.408Z,97249.92
2022-08-22T23:35:31.198Z,97252.55
2022-08-22T23:38:03.488Z,97252.33
2022-08-22T23:40:35.728Z,97250.06
2022-08-22T23:43:07.989Z,97244.02
2022-08-22T23:45:40.470Z,97243.82
2022-08-22T23:48:12.631Z,97242.63
2022-08-22T23:50:45.248Z,97242.73
2022-08-22T23:53:17.529Z,97246.99
2022-08-22T23:55:49.969Z,97249.61
2022-08-22T23:58:22.329Z,97255.75
